Time;durP1;ratioP1;P1;durP2;ratioP2;P2;SDS_P1;SDS_P2;PMS_P1;PMS_P2;Temp;Humidity;BMP_temperature;BMP_pressure;BME280_temperature;BME280_humidity;BME280_pressure;Samples;Min_cycle;Max_cycle;Signal;HPM_P1;HPM_P2
2023/08/07 00:02:07;;;;;;;1.42;1.05;;;;;;;;;;5016266;28;20232;-37
2023/08/07 00:04:35;;;;;;;1.48;1.15;;;;;;;;;;5014333;28;20592;-37
2023/08/07 00:07:02;;;;;;;1.73;1.25;;;;;;;;;;5014078;28;20557;-37
2023/08/07 00:09:30;;;;;;;1.63;1.10;;;;;;;;;;5015466;28;20202;-37
2023/08/07 00:11:57;;;;;;;1.15;0.93;;;;;;;;;;5029611;28;20255;-37
2023/08/07 00:14:25;;;;;;;1.45;1.00;;;;;;;;;;5014622;28;20216;-37
2023/08/07 00:16:52;;;;;;;1.48;1.00;;;;;;;;;;5014972;28;20221;-37
2023/08/07 00:19:19;;;;;;;1.50;0.90;;;;;;;;;;5015354;28;20201;-37
2023/08/07 00:21:46;;;;;;;1.00;0.82;;;;;;;;;;5015394;28;20198;-37
2023/08/07 00:24:13;;;;;;;1.98;0.88;;;;;;;;;;5015239;28;20558;-37
2023/08/07 00:26:40;;;;;;;5.32;0.82;;;;;;;;;;5015092;28;20206;-37
2023/08/07 00:29:08;;;;;;;0.75;0.60;;;;;;;;;;5015109;28;20205;-37
2023/08/07 00:31:35;;;;;;;1.45;0.77;;;;;;;;;;5015071;28;20215;-37
2023/08/07 00:34:03;;;;;;;0.82;0.60;;;;;;;;;;5013900;28;20264;-37
2023/08/07 00:36:34;;;;;;;0.75;0.43;;;;;;;;;;5015103;28;20205;-37
2023/08/07 00:39:05;;;;;;;0.68;0.57;;;;;;;;;;5014185;28;20201;-37
2023/08/07 00:41:33;;;;;;;0.55;0.43;;;;;;;;;;5014043;28;20271;-37
2023/08/07 00:44:00;;;;;;;0.52;0.50;;;;;;;;;;5015113;28;20216;-37
2023/08/07 00:46:29;;;;;;;0.80;0.30;;;;;;;;;;5014703;28;20248;-37
2023/08/07 00:48:57;;;;;;;0.20;0.20;;;;;;;;;;5014901;28;20569;-37
2023/08/07 00:51:24;;;;;;;0.55;0.20;;;;;;;;;;5046593;28;20201;-37
2023/08/07 00:53:51;;;;;;;0.32;0.17;;;;;;;;;;5014655;28;20228;-37
2023/08/07 00:56:18;;;;;;;0.20;0.20;;;;;;;;;;5014885;28;20201;-37
2023/08/07 00:58:46;;;;;;;2.95;0.20;;;;;;;;;;5029915;28;20275;-37
2023/08/07 01:01:13;;;;;;;2.42;0.15;;;;;;;;;;5014699;28;20201;-37
2023/08/07 01:03:41;;;;;;;3.10;0.30;;;;;;;;;;5014603;28;20197;-37
2023/08/07 01:06:08;;;;;;;0.60;0.40;;;;;;;;;;5013230;28;20237;-37
2023/08/07 01:08:35;;;;;;;0.25;0.20;;;;;;;;;;5014742;28;20284;-37
2023/08/07 01:11:21;;;;;;;2.17;0.20;;;;;;;;;;5033804;28;20200;-37
2023/08/07 01:13:55;;;;;;;0.43;0.28;;;;;;;;;;5032787;28;20693;-37
2023/08/07 01:16:32;;;;;;;0.28;0.20;;;;;;;;;;5023841;28;20225;-37
2023/08/07 01:19:01;;;;;;;0.40;0.17;;;;;;;;;;5014635;28;20599;-37
2023/08/07 01:21:28;;;;;;;1.15;0.20;;;;;;;;;;5013032;28;20205;-38
2023/08/07 01:23:55;;;;;;;0.10;0.10;;;;;;;;;;5013212;28;20220;-38
2023/08/07 01:26:23;;;;;;;0.30;0.20;;;;;;;;;;5014164;28;20232;-37
2023/08/07 01:28:59;;;;;;;0.82;0.10;;;;;;;;;;5012545;28;20201;-37
2023/08/07 01:31:29;;;;;;;0.20;0.20;;;;;;;;;;5045523;28;20255;-37
2023/08/07 01:34:00;;;;;;;1.77;0.20;;;;;;;;;;5014340;28;20201;-37
2023/08/07 01:36:28;;;;;;;0.30;0.20;;;;;;;;;;5029032;28;20212;-37
2023/08/07 01:38:57;;;;;;;0.10;0.10;;;;;;;;;;5012901;28;20232;-37
2023/08/07 01:41:25;;;;;;;0.20;0.20;;;;;;;;;;5012704;28;20259;-37
2023/08/07 01:43:54;;;;;;;0.10;0.10;;;;;;;;;;5028882;28;20213;-37
2023/08/07 01:46:21;;;;;;;2.25;0.30;;;;;;;;;;5013660;28;20693;-37
2023/08/07 01:48:48;;;;;;;0.68;0.20;;;;;;;;;;5012654;28;20690;-37
2023/08/07 01:51:15;;;;;;;0.35;0.20;;;;;;;;;;5013658;28;20212;-37
2023/08/07 01:53:42;;;;;;;2.28;0.30;;;;;;;;;;5013985;28;20232;-37
2023/08/07 01:56:10;;;;;;;0.20;0.20;;;;;;;;;;5012446;28;20209;-37
2023/08/07 01:58:37;;;;;;;0.40;0.30;;;;;;;;;;5013715;28;20201;-37
2023/08/07 02:01:04;;;;;;;0.55;0.43;;;;;;;;;;5029211;28;20225;-37
2023/08/07 02:03:32;;;;;;;1.20;0.35;;;;;;;;;;5013919;28;20205;-37
2023/08/07 02:05:59;;;;;;;0.20;0.20;;;;;;;;;;5012220;28;20233;-37
2023/08/07 02:08:27;;;;;;;0.30;0.30;;;;;;;;;;5012449;28;20205;-37
2023/08/07 02:10:54;;;;;;;0.20;0.20;;;;;;;;;;5013519;28;20201;-37
2023/08/07 02:13:21;;;;;;;1.27;0.32;;;;;;;;;;5012550;28;20209;-37
2023/08/07 02:15:48;;;;;;;0.65;0.40;;;;;;;;;;5013668;28;20213;-37
2023/08/07 02:18:15;;;;;;;0.82;0.30;;;;;;;;;;5013368;28;20209;-37
2023/08/07 02:20:42;;;;;;;1.30;0.40;;;;;;;;;;5013331;28;20211;-37
2023/08/07 02:23:09;;;;;;;1.25;0.50;;;;;;;;;;5012318;28;20201;-37
2023/08/07 02:25:36;;;;;;;0.30;0.30;;;;;;;;;;5013426;28;20221;-37
2023/08/07 02:28:04;;;;;;;0.30;0.30;;;;;;;;;;5013383;28;20194;-38
2023/08/07 02:30:33;;;;;;;0.20;0.20;;;;;;;;;;5033090;28;20207;-37
2023/08/07 02:33:00;;;;;;;1.05;0.40;;;;;;;;;;5032731;28;20204;-37
2023/08/07 02:35:27;;;;;;;0.43;0.20;;;;;;;;;;5031693;28;20212;-37
2023/08/07 02:37:55;;;;;;;0.28;0.28;;;;;;;;;;5031648;28;20205;-37
2023/08/07 02:40:22;;;;;;;0.10;0.10;;;;;;;;;;5035304;28;20208;-37
2023/08/07 02:42:49;;;;;;;0.20;0.20;;;;;;;;;;5035468;28;20211;-37
2023/08/07 02:45:16;;;;;;;0.28;0.20;;;;;;;;;;5035347;28;20252;-37
2023/08/07 02:47:43;;;;;;;0.93;0.30;;;;;;;;;;5033461;28;20256;-37
2023/08/07 02:50:10;;;;;;;0.20;0.20;;;;;;;;;;5027753;28;20208;-38
2023/08/07 02:52:38;;;;;;;1.10;0.30;;;;;;;;;;5018939;28;20215;-37
2023/08/07 02:55:05;;;;;;;7.43;0.40;;;;;;;;;;5036372;28;20254;-37
2023/08/07 02:57:32;;;;;;;3.20;0.30;;;;;;;;;;5035496;28;20209;-37
2023/08/07 02:59:59;;;;;;;0.22;0.22;;;;;;;;;;5036516;28;20201;-37
2023/08/07 03:02:28;;;;;;;0.45;0.40;;;;;;;;;;5036371;28;20260;-37
2023/08/07 03:04:55;;;;;;;0.10;0.10;;;;;;;;;;5036163;28;20228;-37
2023/08/07 03:07:24;;;;;;;0.30;0.20;;;;;;;;;;5036280;28;20225;-37
2023/08/07 03:09:51;;;;;;;0.20;0.20;;;;;;;;;;5035262;28;20236;-37
2023/08/07 03:12:18;;;;;;;0.20;0.20;;;;;;;;;;5036180;28;20207;-37
2023/08/07 03:14:45;;;;;;;1.02;0.20;;;;;;;;;;5036157;28;20292;-37
2023/08/07 03:17:12;;;;;;;0.30;0.30;;;;;;;;;;5034893;28;20232;-37
2023/08/07 03:19:42;;;;;;;1.13;0.30;;;;;;;;;;5034736;28;20216;-37
2023/08/07 03:22:11;;;;;;;0.10;0.10;;;;;;;;;;5034823;28;20186;-37
2023/08/07 03:24:38;;;;;;;0.20;0.20;;;;;;;;;;5034756;28;20654;-37
2023/08/07 03:27:06;;;;;;;0.20;0.20;;;;;;;;;;5034604;28;20240;-37
2023/08/07 03:29:33;;;;;;;0.10;0.10;;;;;;;;;;5036150;28;20224;-37
2023/08/07 03:32:00;;;;;;;0.22;0.20;;;;;;;;;;5031951;28;20212;-37
2023/08/07 03:34:28;;;;;;;1.08;0.20;;;;;;;;;;5032691;28;20208;-37
2023/08/07 03:36:55;;;;;;;0.22;0.17;;;;;;;;;;5035051;28;20300;-37
2023/08/07 03:39:23;;;;;;;2.88;0.40;;;;;;;;;;5033955;28;20201;-37
2023/08/07 03:41:51;;;;;;;4.25;0.20;;;;;;;;;;5035388;28;20222;-37
2023/08/07 03:44:19;;;;;;;0.30;0.30;;;;;;;;;;5033685;28;20192;-37
2023/08/07 03:46:46;;;;;;;3.70;0.57;;;;;;;;;;5025159;28;20244;-37
2023/08/07 03:49:14;;;;;;;0.30;0.25;;;;;;;;;;5038738;28;20204;-37
2023/08/07 03:51:40;;;;;;;0.30;0.30;;;;;;;;;;5033473;28;20205;-37
2023/08/07 03:54:08;;;;;;;4.05;0.30;;;;;;;;;;5034404;28;20200;-37
2023/08/07 03:56:38;;;;;;;0.40;0.40;;;;;;;;;;5034665;28;20631;-37
2023/08/07 03:59:06;;;;;;;2.00;0.32;;;;;;;;;;5034735;28;20196;-37
2023/08/07 04:01:34;;;;;;;0.50;0.40;;;;;;;;;;5034241;28;20200;-37
2023/08/07 04:04:01;;;;;;;0.30;0.30;;;;;;;;;;5032998;28;20208;-37
2023/08/07 04:06:29;;;;;;;1.45;0.50;;;;;;;;;;5032943;28;20233;-37
2023/08/07 04:08:57;;;;;;;1.33;0.40;;;;;;;;;;5034018;28;20274;-37
2023/08/07 04:11:24;;;;;;;0.40;0.40;;;;;;;;;;5033203;28;20209;-37
2023/08/07 04:13:52;;;;;;;0.93;0.43;;;;;;;;;;5033714;28;20231;-37
2023/08/07 04:16:19;;;;;;;2.60;0.63;;;;;;;;;;5034182;28;20208;-37
2023/08/07 04:18:47;;;;;;;0.52;0.52;;;;;;;;;;5033998;28;20200;-37
2023/08/07 04:21:14;;;;;;;0.82;0.60;;;;;;;;;;5034306;28;20208;-38
2023/08/07 04:23:41;;;;;;;0.93;0.70;;;;;;;;;;5033770;28;20192;-37
2023/08/07 04:26:09;;;;;;;1.83;0.63;;;;;;;;;;5033164;28;20229;-37
2023/08/07 04:28:36;;;;;;;0.38;0.32;;;;;;;;;;5017185;28;20207;-37
2023/08/07 04:31:03;;;;;;;0.45;0.40;;;;;;;;;;5015273;28;20278;-38
2023/08/07 04:33:31;;;;;;;0.55;0.50;;;;;;;;;;5034582;28;20208;-37
2023/08/07 04:35:58;;;;;;;2.67;0.40;;;;;;;;;;5034248;28;20220;-38
2023/08/07 04:38:25;;;;;;;2.15;0.50;;;;;;;;;;5034484;28;20201;-37
2023/08/07 04:40:53;;;;;;;0.60;0.50;;;;;;;;;;5033774;28;20220;-37
2023/08/07 04:43:20;;;;;;;3.42;0.65;;;;;;;;;;5031833;28;20211;-37
2023/08/07 04:45:48;;;;;;;0.98;0.63;;;;;;;;;;5034474;28;20280;-38
2023/08/07 04:48:17;;;;;;;0.73;0.60;;;;;;;;;;5034098;28;20197;-38
2023/08/07 04:50:45;;;;;;;0.40;0.40;;;;;;;;;;5034390;28;20200;-37
2023/08/07 04:53:12;;;;;;;1.80;0.68;;;;;;;;;;5032881;28;20280;-37
2023/08/07 04:55:39;;;;;;;1.05;0.60;;;;;;;;;;5033989;28;20658;-37
2023/08/07 04:58:06;;;;;;;0.60;0.60;;;;;;;;;;5033786;28;20201;-37
2023/08/07 05:00:35;;;;;;;2.42;0.70;;;;;;;;;;5033840;28;20263;-37
2023/08/07 05:03:02;;;;;;;0.60;0.60;;;;;;;;;;5033867;28;20201;-37
2023/08/07 05:05:31;;;;;;;0.52;0.52;;;;;;;;;;5033907;28;20244;-37
2023/08/07 05:07:58;;;;;;;2.40;0.60;;;;;;;;;;5033559;28;20276;-37
2023/08/07 05:10:25;;;;;;;1.05;0.80;;;;;;;;;;5029761;28;20208;-38
2023/08/07 05:12:55;;;;;;;0.70;0.60;;;;;;;;;;5032553;28;20197;-37
2023/08/07 05:15:23;;;;;;;0.73;0.70;;;;;;;;;;5033819;28;20201;-37
2023/08/07 05:17:51;;;;;;;1.02;0.77;;;;;;;;;;5033254;28;20280;-37
2023/08/07 05:20:18;;;;;;;0.55;0.50;;;;;;;;;;5033159;28;20626;-37
2023/08/07 05:22:46;;;;;;;1.10;0.80;;;;;;;;;;5033276;28;20639;-37
2023/08/07 05:25:18;;;;;;;0.60;0.60;;;;;;;;;;5033210;28;20209;-37
2023/08/07 05:27:45;;;;;;;0.65;0.65;;;;;;;;;;5033334;28;20296;-38
2023/08/07 05:30:13;;;;;;;5.88;0.68;;;;;;;;;;5033639;28;20204;-37
2023/08/07 05:32:41;;;;;;;0.60;0.55;;;;;;;;;;5030810;28;20203;-37
2023/08/07 05:35:08;;;;;;;2.97;0.43;;;;;;;;;;5033488;28;20204;-38
2023/08/07 05:37:36;;;;;;;1.00;0.60;;;;;;;;;;5032916;28;20209;-37
2023/08/07 05:40:04;;;;;;;0.57;0.57;;;;;;;;;;5030880;28;20201;-37
2023/08/07 05:42:31;;;;;;;1.20;0.50;;;;;;;;;;5033077;28;20677;-38
2023/08/07 05:44:59;;;;;;;0.68;0.68;;;;;;;;;;5033055;28;20251;-37
2023/08/07 05:47:26;;;;;;;0.77;0.60;;;;;;;;;;5032981;28;20545;-37
2023/08/07 05:49:53;;;;;;;1.08;0.70;;;;;;;;;;5033008;28;20200;-37
2023/08/07 05:52:20;;;;;;;9.82;0.70;;;;;;;;;;5032833;28;20670;-38
2023/08/07 05:54:47;;;;;;;1.00;0.60;;;;;;;;;;5033229;28;20531;-37
2023/08/07 05:57:15;;;;;;;0.88;0.65;;;;;;;;;;5032957;28;20201;-37
2023/08/07 05:59:42;;;;;;;0.88;0.70;;;;;;;;;;5032867;28;20724;-37
2023/08/07 06:02:11;;;;;;;1.58;0.80;;;;;;;;;;5029498;28;20208;-37
2023/08/07 06:04:39;;;;;;;0.75;0.70;;;;;;;;;;5032562;28;20205;-38
2023/08/07 06:07:07;;;;;;;0.60;0.60;;;;;;;;;;5032670;28;20204;-39
2023/08/07 06:09:35;;;;;;;3.30;0.68;;;;;;;;;;5027306;28;20298;-37
2023/08/07 06:12:02;;;;;;;1.13;0.60;;;;;;;;;;5031340;28;20282;-38
2023/08/07 06:14:30;;;;;;;0.95;0.80;;;;;;;;;;5031551;28;20636;-37
2023/08/07 06:16:58;;;;;;;0.60;0.60;;;;;;;;;;5032338;28;20228;-39
2023/08/07 06:19:27;;;;;;;0.60;0.60;;;;;;;;;;5026154;28;20240;-37
2023/08/07 06:21:59;;;;;;;0.75;0.70;;;;;;;;;;5024155;28;20224;-38
2023/08/07 06:24:27;;;;;;;0.68;0.68;;;;;;;;;;5031919;28;20246;-37
2023/08/07 06:26:54;;;;;;;2.78;0.60;;;;;;;;;;5032296;28;20590;-37
2023/08/07 06:29:21;;;;;;;0.80;0.68;;;;;;;;;;5031550;28;20227;-37
2023/08/07 06:31:49;;;;;;;0.70;0.50;;;;;;;;;;5032644;28;20225;-37
2023/08/07 06:34:16;;;;;;;1.08;0.80;;;;;;;;;;5032264;28;20311;-38
2023/08/07 06:36:43;;;;;;;0.95;0.80;;;;;;;;;;5031854;28;20224;-37
2023/08/07 06:39:10;;;;;;;1.25;0.73;;;;;;;;;;5030064;28;20204;-38
2023/08/07 06:41:38;;;;;;;0.90;0.70;;;;;;;;;;5029795;28;20228;-37
2023/08/07 06:44:06;;;;;;;1.05;0.75;;;;;;;;;;5030742;28;20279;-37
2023/08/07 06:46:34;;;;;;;6.00;0.90;;;;;;;;;;5027928;28;20298;-38
2023/08/07 06:49:01;;;;;;;0.80;0.70;;;;;;;;;;5029979;28;20216;-37
2023/08/07 06:51:28;;;;;;;0.57;0.57;;;;;;;;;;5031425;28;20225;-37
2023/08/07 06:53:55;;;;;;;0.80;0.70;;;;;;;;;;5031475;28;20212;-37
2023/08/07 06:56:22;;;;;;;13.82;11.73;;;;;;;;;;5031533;28;20220;-37
2023/08/07 06:58:50;;;;;;;1.55;1.17;;;;;;;;;;5029869;28;20270;-37
2023/08/07 07:01:17;;;;;;;0.88;0.70;;;;;;;;;;5029688;28;20224;-37
2023/08/07 07:03:46;;;;;;;1.02;0.80;;;;;;;;;;5031032;28;20252;-37
2023/08/07 07:06:14;;;;;;;0.82;0.63;;;;;;;;;;5030562;28;20232;-39
2023/08/07 07:08:41;;;;;;;0.65;0.65;;;;;;;;;;5030670;28;20228;-37
2023/08/07 07:11:08;;;;;;;0.63;0.63;;;;;;;;;;5030869;28;20240;-37
2023/08/07 07:13:36;;;;;;;4.90;0.70;;;;;;;;;;5031085;28;20244;-38
2023/08/07 07:16:03;;;;;;;0.65;0.50;;;;;;;;;;5030056;28;20223;-37
2023/08/07 07:18:31;;;;;;;0.88;0.70;;;;;;;;;;5028762;28;20255;-37
2023/08/07 07:20:59;;;;;;;0.60;0.50;;;;;;;;;;5028700;28;20220;-37
2023/08/07 07:23:28;;;;;;;1.05;0.70;;;;;;;;;;5030825;28;20217;-38
2023/08/07 07:25:55;;;;;;;1.83;1.02;;;;;;;;;;5031858;28;20565;-37
2023/08/07 07:28:22;;;;;;;0.60;0.60;;;;;;;;;;5015980;28;20229;-37
2023/08/07 07:30:50;;;;;;;0.93;0.68;;;;;;;;;;5034976;28;20232;-37
2023/08/07 07:33:17;;;;;;;0.80;0.70;;;;;;;;;;5034701;28;20610;-37
2023/08/07 07:35:44;;;;;;;0.60;0.60;;;;;;;;;;5034664;28;20232;-38
2023/08/07 07:38:12;;;;;;;1.85;0.70;;;;;;;;;;5033145;28;20220;-37
2023/08/07 07:40:39;;;;;;;0.82;0.77;;;;;;;;;;5035086;28;20290;-37
2023/08/07 07:43:06;;;;;;;0.70;0.70;;;;;;;;;;5034511;28;20248;-37
2023/08/07 07:45:35;;;;;;;1.10;1.00;;;;;;;;;;5032011;28;20213;-37
2023/08/07 07:48:03;;;;;;;1.35;0.82;;;;;;;;;;5031904;28;20302;-38
2023/08/07 07:50:30;;;;;;;1.42;0.88;;;;;;;;;;5034930;28;20721;-38
2023/08/07 07:52:57;;;;;;;1.02;0.70;;;;;;;;;;5032764;28;20221;-37
2023/08/07 07:55:25;;;;;;;1.40;0.80;;;;;;;;;;5034983;28;20287;-37
2023/08/07 07:57:54;;;;;;;0.60;0.60;;;;;;;;;;5033822;28;20216;-38
2023/08/07 08:00:26;;;;;;;0.88;0.60;;;;;;;;;;5024712;28;20220;-38
2023/08/07 08:02:53;;;;;;;0.70;0.70;;;;;;;;;;5034332;28;20224;-38
2023/08/07 08:05:21;;;;;;;0.98;0.77;;;;;;;;;;5033635;28;20320;-39
2023/08/07 08:07:48;;;;;;;0.90;0.90;;;;;;;;;;5033926;28;20327;-39
2023/08/07 08:10:16;;;;;;;0.70;0.68;;;;;;;;;;5031856;28;20250;-37
2023/08/07 08:12:43;;;;;;;0.40;0.40;;;;;;;;;;5033405;28;20217;-38
2023/08/07 08:15:11;;;;;;;0.60;0.55;;;;;;;;;;5034620;28;20266;-38
2023/08/07 08:17:38;;;;;;;5.00;0.80;;;;;;;;;;5033764;28;20221;-38
2023/08/07 08:20:07;;;;;;;1.27;0.80;;;;;;;;;;5034194;28;20247;-38
2023/08/07 08:22:34;;;;;;;1.45;0.60;;;;;;;;;;5033982;28;20223;-38
2023/08/07 08:25:04;;;;;;;0.90;0.60;;;;;;;;;;5034077;28;20566;-38
2023/08/07 08:27:31;;;;;;;0.98;0.60;;;;;;;;;;5030476;28;20227;-38
2023/08/07 08:29:59;;;;;;;0.80;0.80;;;;;;;;;;5032053;28;20239;-37
2023/08/07 08:32:26;;;;;;;2.15;1.05;;;;;;;;;;5033153;28;20232;-39
2023/08/07 08:34:54;;;;;;;1.83;0.80;;;;;;;;;;5028168;28;20220;-38
2023/08/07 08:37:21;;;;;;;0.80;0.80;;;;;;;;;;5032245;28;20308;-38
2023/08/07 08:39:48;;;;;;;1.23;1.02;;;;;;;;;;5033515;28;20231;-37
2023/08/07 08:42:17;;;;;;;3.70;0.82;;;;;;;;;;5031461;28;20220;-38
2023/08/07 08:44:51;;;;;;;0.90;0.70;;;;;;;;;;5033574;28;20524;-37
2023/08/07 08:47:18;;;;;;;1.10;0.70;;;;;;;;;;5027993;28;20682;-38
2023/08/07 08:49:47;;;;;;;1.00;0.80;;;;;;;;;;5032938;28;20196;-39
2023/08/07 08:52:15;;;;;;;0.85;0.60;;;;;;;;;;5031849;28;20220;-39
2023/08/07 08:54:43;;;;;;;1.90;0.70;;;;;;;;;;5030091;28;20196;-39
2023/08/07 08:57:11;;;;;;;1.23;0.77;;;;;;;;;;5030284;28;20499;-39
2023/08/07 08:59:40;;;;;;;2.60;0.70;;;;;;;;;;5031492;28;20666;-39
2023/08/07 09:02:08;;;;;;;0.90;0.70;;;;;;;;;;5029810;28;20708;-38
2023/08/07 09:04:36;;;;;;;2.35;0.70;;;;;;;;;;5031417;28;20638;-38
2023/08/07 09:07:04;;;;;;;1.48;0.60;;;;;;;;;;5032180;28;20212;-39
2023/08/07 09:09:32;;;;;;;0.80;0.70;;;;;;;;;;5031691;28;20654;-38
2023/08/07 09:12:00;;;;;;;1.58;0.82;;;;;;;;;;5033103;28;20201;-39
2023/08/07 09:14:31;;;;;;;1.70;0.98;;;;;;;;;;5033111;28;20207;-39
2023/08/07 09:17:01;;;;;;;0.90;0.75;;;;;;;;;;5031427;28;20657;-39
2023/08/07 09:19:28;;;;;;;0.90;0.77;;;;;;;;;;5030725;28;20590;-39
2023/08/07 09:21:55;;;;;;;2.90;0.70;;;;;;;;;;5031866;28;20216;-39
2023/08/07 09:24:23;;;;;;;0.73;0.60;;;;;;;;;;5033203;28;20240;-38
2023/08/07 09:26:52;;;;;;;0.93;0.77;;;;;;;;;;5032761;28;20251;-39
2023/08/07 09:29:20;;;;;;;0.77;0.65;;;;;;;;;;5030382;28;20707;-38
2023/08/07 09:31:47;;;;;;;0.98;0.50;;;;;;;;;;5030909;28;20232;-38
2023/08/07 09:34:19;;;;;;;0.70;0.52;;;;;;;;;;5032723;28;20265;-39
2023/08/07 09:36:46;;;;;;;2.67;0.57;;;;;;;;;;5032921;28;20268;-39
2023/08/07 09:39:14;;;;;;;2.67;0.85;;;;;;;;;;5032870;28;20209;-38
2023/08/07 09:41:41;;;;;;;2.97;0.95;;;;;;;;;;5033069;28;20189;-37
2023/08/07 09:44:10;;;;;;;0.95;0.73;;;;;;;;;;5032380;28;20661;-38
2023/08/07 09:46:44;;;;;;;1.13;0.73;;;;;;;;;;5032198;28;20267;-37
2023/08/07 09:49:12;;;;;;;1.23;0.75;;;;;;;;;;5031514;28;20262;-38
2023/08/07 09:51:46;;;;;;;1.33;0.60;;;;;;;;;;5032415;28;20532;-38
2023/08/07 09:54:14;;;;;;;0.82;0.80;;;;;;;;;;5029852;28;20188;-38
2023/08/07 09:56:41;;;;;;;0.88;0.65;;;;;;;;;;5030544;28;20738;-38
2023/08/07 09:59:08;;;;;;;0.82;0.50;;;;;;;;;;5030413;28;20270;-37
2023/08/07 10:01:40;;;;;;;4.20;0.52;;;;;;;;;;5031256;28;20251;-37
2023/08/07 10:04:08;;;;;;;1.48;0.80;;;;;;;;;;5032038;28;20201;-36
2023/08/07 10:06:35;;;;;;;0.80;0.50;;;;;;;;;;5033190;28;20236;-36
2023/08/07 10:09:03;;;;;;;0.90;0.57;;;;;;;;;;5030973;28;20685;-37
2023/08/07 10:11:31;;;;;;;0.60;0.50;;;;;;;;;;5031420;28;20247;-37
2023/08/07 10:13:58;;;;;;;0.82;0.50;;;;;;;;;;5031117;28;20209;-37
2023/08/07 10:16:27;;;;;;;0.60;0.50;;;;;;;;;;5029595;28;20208;-38
2023/08/07 10:18:55;;;;;;;0.93;0.40;;;;;;;;;;5031145;28;20534;-37
2023/08/07 10:21:23;;;;;;;0.85;0.60;;;;;;;;;;5031765;28;20251;-37
2023/08/07 10:23:53;;;;;;;1.45;0.40;;;;;;;;;;5029428;28;20196;-38
2023/08/07 10:26:21;;;;;;;1.45;0.70;;;;;;;;;;5030516;28;20228;-36
2023/08/07 10:28:49;;;;;;;0.90;0.60;;;;;;;;;;5030780;28;20225;-36
2023/08/07 10:31:17;;;;;;;0.82;0.40;;;;;;;;;;5031298;28;20661;-37
2023/08/07 10:33:45;;;;;;;0.70;0.60;;;;;;;;;;5031850;28;20204;-36
2023/08/07 10:36:12;;;;;;;0.85;0.73;;;;;;;;;;5032161;28;20203;-37
2023/08/07 10:38:40;;;;;;;2.60;0.60;;;;;;;;;;5031164;28;20594;-37
2023/08/07 10:41:09;;;;;;;1.13;0.60;;;;;;;;;;5030677;28;20208;-38
2023/08/07 10:43:41;;;;;;;0.50;0.40;;;;;;;;;;5032858;28;20209;-38
2023/08/07 10:46:11;;;;;;;0.70;0.60;;;;;;;;;;5032438;28;20748;-37
2023/08/07 10:48:48;;;;;;;2.05;0.70;;;;;;;;;;5032062;28;20229;-37
2023/08/07 10:51:17;;;;;;;0.85;0.70;;;;;;;;;;5032760;28;20189;-36
2023/08/07 10:53:48;;;;;;;1.05;0.50;;;;;;;;;;5030356;28;20204;-37
2023/08/07 10:56:17;;;;;;;0.70;0.32;;;;;;;;;;5031206;28;20259;-36
2023/08/07 10:58:50;;;;;;;3.45;0.50;;;;;;;;;;5031837;28;20209;-36
2023/08/07 11:01:30;;;;;;;3.13;0.80;;;;;;;;;;5035608;28;20204;-37
2023/08/07 11:03:59;;;;;;;0.73;0.50;;;;;;;;;;5036250;28;20211;-36
2023/08/07 11:06:30;;;;;;;0.70;0.40;;;;;;;;;;5036454;28;20229;-36
2023/08/07 11:09:06;;;;;;;1.13;0.50;;;;;;;;;;5035912;28;20315;-37
2023/08/07 11:11:42;;;;;;;0.73;0.57;;;;;;;;;;5030531;28;20220;-36
2023/08/07 11:14:12;;;;;;;0.70;0.50;;;;;;;;;;5018249;28;20212;-36
2023/08/07 11:16:39;;;;;;;2.17;0.80;;;;;;;;;;5036631;28;20200;-36
2023/08/07 11:19:08;;;;;;;0.60;0.50;;;;;;;;;;5035128;28;20202;-36
2023/08/07 11:21:36;;;;;;;3.78;0.60;;;;;;;;;;5036027;28;20620;-36
2023/08/07 11:24:03;;;;;;;2.42;0.63;;;;;;;;;;5036119;28;20673;-36
2023/08/07 11:26:31;;;;;;;2.38;0.57;;;;;;;;;;5034665;28;20201;-36
2023/08/07 11:28:58;;;;;;;0.60;0.60;;;;;;;;;;5036139;28;20287;-36
2023/08/07 11:31:25;;;;;;;3.03;0.50;;;;;;;;;;5028902;28;20229;-36
2023/08/07 11:33:55;;;;;;;0.70;0.50;;;;;;;;;;5035419;28;20231;-36
2023/08/07 11:36:22;;;;;;;0.70;0.40;;;;;;;;;;5029368;28;20325;-36
2023/08/07 11:38:49;;;;;;;0.38;0.35;;;;;;;;;;5021039;28;20232;-36
2023/08/07 11:41:17;;;;;;;1.15;0.50;;;;;;;;;;5033279;28;20320;-36
2023/08/07 11:43:45;;;;;;;5.75;0.80;;;;;;;;;;5035195;28;20224;-36
2023/08/07 11:46:14;;;;;;;0.63;0.30;;;;;;;;;;5033121;28;20237;-36
2023/08/07 11:48:43;;;;;;;1.13;1.00;;;;;;;;;;5035379;28;20240;-36
2023/08/07 11:51:10;;;;;;;0.50;0.50;;;;;;;;;;5035016;28;20224;-36
2023/08/07 11:53:39;;;;;;;0.40;0.40;;;;;;;;;;5035126;28;20224;-36
2023/08/07 11:56:09;;;;;;;0.80;0.50;;;;;;;;;;5034882;28;20244;-36
2023/08/07 11:58:38;;;;;;;0.52;0.40;;;;;;;;;;5035036;28;20229;-36
2023/08/07 12:01:17;;;;;;;2.22;0.50;;;;;;;;;;5033027;28;20286;-37
2023/08/07 12:03:57;;;;;;;0.70;0.35;;;;;;;;;;5034244;28;20271;-36
2023/08/07 12:06:25;;;;;;;1.58;0.40;;;;;;;;;;5033000;28;20236;-36
2023/08/07 12:08:56;;;;;;;0.60;0.40;;;;;;;;;;5034181;28;20224;-36
2023/08/07 12:11:24;;;;;;;2.22;0.50;;;;;;;;;;5031028;28;20209;-36
2023/08/07 12:13:51;;;;;;;1.33;0.70;;;;;;;;;;5034238;28;20418;-36
2023/08/07 12:16:18;;;;;;;0.60;0.50;;;;;;;;;;5033685;28;20311;-37
2023/08/07 12:18:55;;;;;;;0.45;0.32;;;;;;;;;;5034240;28;20212;-37
2023/08/07 12:21:24;;;;;;;0.50;0.25;;;;;;;;;;5034469;28;20228;-36
2023/08/07 12:23:55;;;;;;;0.80;0.40;;;;;;;;;;5033604;28;20228;-36
2023/08/07 12:26:22;;;;;;;0.43;0.32;;;;;;;;;;5033901;28;20224;-36
2023/08/07 12:28:49;;;;;;;0.43;0.30;;;;;;;;;;5033426;28;20248;-36
2023/08/07 12:31:17;;;;;;;1.17;0.70;;;;;;;;;;5032030;28;20216;-36
2023/08/07 12:33:45;;;;;;;1.05;0.35;;;;;;;;;;5033728;28;20716;-36
2023/08/07 12:36:14;;;;;;;0.30;0.30;;;;;;;;;;5028002;28;20279;-36
2023/08/07 12:38:44;;;;;;;0.80;0.40;;;;;;;;;;5026323;28;20224;-37
2023/08/07 12:41:11;;;;;;;0.80;0.50;;;;;;;;;;5032941;28;20299;-36
2023/08/07 12:43:42;;;;;;;1.13;0.63;;;;;;;;;;5034601;28;20247;-36
2023/08/07 12:46:09;;;;;;;2.72;0.70;;;;;;;;;;5033507;28;20220;-37
2023/08/07 12:48:39;;;;;;;0.63;0.50;;;;;;;;;;5033285;28;20232;-37
2023/08/07 12:51:06;;;;;;;0.68;0.40;;;;;;;;;;5033606;28;20227;-37
2023/08/07 12:53:33;;;;;;;0.50;0.50;;;;;;;;;;5033837;28;20286;-36
2023/08/07 12:56:01;;;;;;;5.10;0.50;;;;;;;;;;5033202;28;20711;-36
2023/08/07 12:58:29;;;;;;;1.60;0.40;;;;;;;;;;5028962;28;20589;-37
2023/08/07 13:00:56;;;;;;;0.95;0.73;;;;;;;;;;5024047;28;20724;-37
2023/08/07 13:03:24;;;;;;;0.32;0.32;;;;;;;;;;5032408;28;20220;-37
2023/08/07 13:05:52;;;;;;;1.05;0.40;;;;;;;;;;5020764;28;20237;-37
2023/08/07 13:08:20;;;;;;;0.95;0.47;;;;;;;;;;5025318;28;20597;-38
2023/08/07 13:10:47;;;;;;;0.57;0.50;;;;;;;;;;5032218;28;20632;-39
2023/08/07 13:13:16;;;;;;;1.05;0.70;;;;;;;;;;5032527;28;20225;-38
2023/08/07 13:15:43;;;;;;;1.08;0.60;;;;;;;;;;5032914;28;20322;-38
2023/08/07 13:18:11;;;;;;;0.63;0.50;;;;;;;;;;5032573;28;20564;-38
2023/08/07 13:20:38;;;;;;;2.15;0.57;;;;;;;;;;5031724;28;20219;-39
2023/08/07 13:23:06;;;;;;;8.25;0.55;;;;;;;;;;5033516;28;20307;-38
2023/08/07 13:25:33;;;;;;;2.13;0.32;;;;;;;;;;5031541;28;20315;-38
2023/08/07 13:28:04;;;;;;;0.98;0.60;;;;;;;;;;5032015;28;20219;-39
2023/08/07 13:30:31;;;;;;;0.65;0.55;;;;;;;;;;5029238;28;20225;-38
2023/08/07 13:33:02;;;;;;;3.45;0.50;;;;;;;;;;5029312;28;20221;-39
2023/08/07 13:35:30;;;;;;;2.30;0.57;;;;;;;;;;5028941;28;20694;-38
2023/08/07 13:37:58;;;;;;;3.45;0.60;;;;;;;;;;5032198;28;20631;-37
2023/08/07 13:40:25;;;;;;;2.08;0.60;;;;;;;;;;5031844;28;20227;-37
2023/08/07 13:42:53;;;;;;;8.82;0.57;;;;;;;;;;5032406;28;20235;-38
2023/08/07 13:45:20;;;;;;;1.08;0.60;;;;;;;;;;5032376;28;20233;-38
2023/08/07 13:47:47;;;;;;;0.75;0.52;;;;;;;;;;5032599;28;20282;-38
2023/08/07 13:50:15;;;;;;;1.98;0.63;;;;;;;;;;5032549;28;20244;-38
2023/08/07 13:52:42;;;;;;;0.73;0.60;;;;;;;;;;5032473;28;20693;-38
2023/08/07 13:55:09;;;;;;;0.43;0.40;;;;;;;;;;5032507;28;20236;-37
2023/08/07 13:57:37;;;;;;;0.60;0.55;;;;;;;;;;5033085;28;20224;-37
2023/08/07 14:00:05;;;;;;;1.30;0.52;;;;;;;;;;5032680;28;20603;-36
2023/08/07 14:02:34;;;;;;;0.50;0.40;;;;;;;;;;5032762;28;20725;-36
2023/08/07 14:05:02;;;;;;;3.35;0.65;;;;;;;;;;5033120;28;20262;-37
2023/08/07 14:07:29;;;;;;;0.52;0.40;;;;;;;;;;5032818;28;20228;-37
2023/08/07 14:09:56;;;;;;;1.40;0.63;;;;;;;;;;5032364;28;20591;-36
2023/08/07 14:12:24;;;;;;;0.50;0.50;;;;;;;;;;5032821;28;20224;-37
2023/08/07 14:14:51;;;;;;;1.40;0.60;;;;;;;;;;5032418;28;20665;-36
2023/08/07 14:17:18;;;;;;;4.25;0.77;;;;;;;;;;5032905;28;20229;-37
2023/08/07 14:19:46;;;;;;;1.33;0.60;;;;;;;;;;5032324;28;20898;-38
2023/08/07 14:22:13;;;;;;;1.25;0.80;;;;;;;;;;5031256;28;20229;-37
2023/08/07 14:24:41;;;;;;;0.95;0.70;;;;;;;;;;5024246;28;20275;-37
2023/08/07 14:27:08;;;;;;;0.77;0.30;;;;;;;;;;5032339;28;20228;-37
2023/08/07 14:29:35;;;;;;;0.93;0.68;;;;;;;;;;5031311;28;20241;-37
2023/08/07 14:32:04;;;;;;;0.98;0.75;;;;;;;;;;5031002;28;20224;-37
2023/08/07 14:34:31;;;;;;;0.90;0.70;;;;;;;;;;5030729;28;20221;-37
2023/08/07 14:36:59;;;;;;;1.17;0.85;;;;;;;;;;5031153;28;20270;-36
2023/08/07 14:39:27;;;;;;;2.28;0.88;;;;;;;;;;5033669;28;20232;-38
2023/08/07 14:41:55;;;;;;;1.58;0.60;;;;;;;;;;5030630;28;20224;-36
2023/08/07 14:44:22;;;;;;;0.90;0.60;;;;;;;;;;5025413;28;20228;-37
2023/08/07 14:46:50;;;;;;;1.35;0.95;;;;;;;;;;5016040;28;20229;-37
2023/08/07 14:49:17;;;;;;;0.88;0.47;;;;;;;;;;5046925;28;20237;-37